createdAt,value
2022-11-04T00:00:38.350Z,4.90
2022-11-04T00:03:05.457Z,4.68
2022-11-04T00:05:32.899Z,4.66
2022-11-04T00:08:18.436Z,4.89
2022-11-04T00:11:11.864Z,5.09
2022-11-04T00:13:38.789Z,5.21
2022-11-04T00:16:24.523Z,5.34
2022-11-04T00:18:51.424Z,5.51
2022-11-04T00:21:37.532Z,5.41
2022-11-04T00:24:23.267Z,5.29
2022-11-04T00:27:09.096Z,5.21
2022-11-04T00:29:36.046Z,5.20
2022-11-04T00:32:21.944Z,5.31
2022-11-04T00:34:48.799Z,5.51
2022-11-04T00:37:16.044Z,5.52
2022-11-04T00:39:42.959Z,5.51
2022-11-04T00:42:10.350Z,5.51
2022-11-04T00:44:37.273Z,5.45
2022-11-04T00:47:04.523Z,5.24
2022-11-04T00:49:31.454Z,5.22
2022-11-04T00:51:58.357Z,5.22
2022-11-04T00:54:25.660Z,5.21
2022-11-04T00:56:54.128Z,5.27
2022-11-04T00:59:21.364Z,5.21
2022-11-04T01:01:48.455Z,5.21
2022-11-04T01:04:15.855Z,5.29
2022-11-04T01:06:42.775Z,5.17
2022-11-04T01:09:12.115Z,5.22
2022-11-04T01:11:39.100Z,5.15
2022-11-04T01:14:06.361Z,5.02
2022-11-04T01:16:33.559Z,5.02
2022-11-04T01:19:01.015Z,4.94
2022-11-04T01:21:27.934Z,4.90
2022-11-04T01:23:55.548Z,4.84
2022-11-04T01:26:24.272Z,4.76
2022-11-04T01:28:52.766Z,4.60
2022-11-04T01:31:23.691Z,4.66
2022-11-04T01:33:51.839Z,4.51
2022-11-04T01:36:18.851Z,4.60
2022-11-04T01:38:46.255Z,4.60
2022-11-04T01:41:21.275Z,4.59
2022-11-04T01:43:56.400Z,4.65
2022-11-04T01:46:26.759Z,4.70
2022-11-04T01:48:56.618Z,4.58
2022-11-04T01:51:23.835Z,4.60
2022-11-04T01:53:52.343Z,4.49
2022-11-04T01:56:20.932Z,4.51
2022-11-04T01:58:52.892Z,4.54
2022-11-04T02:01:20.157Z,4.56
2022-11-04T02:03:50.938Z,4.58
2022-11-04T02:06:18.708Z,4.34
2022-11-04T02:08:46.670Z,4.36
2022-11-04T02:11:34.165Z,4.32
2022-11-04T02:14:01.551Z,4.26
2022-11-04T02:16:40.415Z,4.16
2022-11-04T02:19:19.683Z,4.18
2022-11-04T02:22:05.214Z,4.12
2022-11-04T02:24:50.943Z,3.95
2022-11-04T02:27:27.514Z,3.61
2022-11-04T02:29:57.435Z,3.37
2022-11-04T02:32:25.282Z,3.45
2022-11-04T02:34:58.480Z,3.50
2022-11-04T02:37:36.677Z,3.54
2022-11-04T02:40:14.142Z,3.59
2022-11-04T02:42:47.496Z,3.48
2022-11-04T02:45:22.187Z,3.60
2022-11-04T02:47:52.986Z,3.59
2022-11-04T02:50:31.579Z,3.76
2022-11-04T02:53:01.735Z,3.82
2022-11-04T02:55:32.142Z,3.84
2022-11-04T02:58:01.236Z,3.64
2022-11-04T03:00:28.871Z,3.63
2022-11-04T03:03:06.409Z,3.65
2022-11-04T03:05:35.283Z,3.68
2022-11-04T03:08:05.648Z,3.90
2022-11-04T03:10:42.137Z,3.91
2022-11-04T03:13:13.482Z,3.73
2022-11-04T03:15:43.195Z,3.81
2022-11-04T03:18:17.872Z,3.96
2022-11-04T03:20:46.307Z,4.05
2022-11-04T03:23:13.991Z,3.99
2022-11-04T03:25:44.272Z,3.88
2022-11-04T03:28:17.406Z,3.88
2022-11-04T03:30:47.800Z,3.79
2022-11-04T03:33:33.634Z,3.94
2022-11-04T03:36:00.617Z,3.97
2022-11-04T03:38:27.900Z,4.09
2022-11-04T03:40:54.838Z,4.06
2022-11-04T03:43:26.191Z,4.08
2022-11-04T03:45:53.924Z,4.01
2022-11-04T03:48:21.240Z,4.04
2022-11-04T03:50:48.880Z,4.05
2022-11-04T03:53:18.785Z,4.00
2022-11-04T03:55:48.510Z,3.83
2022-11-04T03:58:24.690Z,3.79
2022-11-04T04:01:05.997Z,3.77
2022-11-04T04:03:55.479Z,3.89
2022-11-04T04:06:27.001Z,3.91
2022-11-04T04:08:55.773Z,3.92
2022-11-04T04:11:28.746Z,3.85
2022-11-04T04:14:34.412Z,3.76
2022-11-04T04:17:03.845Z,3.80
2022-11-04T04:19:32.076Z,3.83
2022-11-04T04:22:01.475Z,3.78
2022-11-04T04:24:50.558Z,3.77
2022-11-04T04:27:31.379Z,3.84
2022-11-04T04:30:04.610Z,3.83
2022-11-04T04:32:34.898Z,3.84
2022-11-04T04:35:20.531Z,3.89
2022-11-04T04:37:48.340Z,3.80
2022-11-04T04:40:35.904Z,3.95
2022-11-04T04:43:23.706Z,3.91
2022-11-04T04:45:52.974Z,3.95
2022-11-04T04:48:20.186Z,4.10
2022-11-04T04:50:50.057Z,4.03
2022-11-04T04:53:17.469Z,4.11
2022-11-04T04:55:44.355Z,4.11
2022-11-04T04:58:11.573Z,4.15
2022-11-04T05:00:38.486Z,4.15
2022-11-04T05:03:06.124Z,4.16
2022-11-04T05:05:33.331Z,4.06
2022-11-04T05:08:05.019Z,4.13
2022-11-04T05:10:31.943Z,4.12
2022-11-04T05:13:18.248Z,4.11
2022-11-04T05:15:45.423Z,4.04
2022-11-04T05:18:12.338Z,4.04
2022-11-04T05:20:40.505Z,3.85
2022-11-04T05:23:07.781Z,4.00
2022-11-04T05:25:35.255Z,4.03
2022-11-04T05:28:02.571Z,3.91
2022-11-04T05:30:29.844Z,4.07
2022-11-04T05:32:59.979Z,4.05
2022-11-04T05:35:32.182Z,3.97
2022-11-04T05:37:59.086Z,3.85
2022-11-04T05:40:26.327Z,3.84
2022-11-04T05:42:53.316Z,3.96
2022-11-04T05:45:20.546Z,3.93
2022-11-04T05:47:47.572Z,3.93
2022-11-04T05:50:14.875Z,3.97
2022-11-04T05:52:41.822Z,3.90
2022-11-04T05:55:09.193Z,3.91
2022-11-04T05:57:38.337Z,4.01
2022-11-04T06:00:06.206Z,4.00
2022-11-04T06:02:33.300Z,3.95
2022-11-04T06:05:00.754Z,4.03
2022-11-04T06:07:27.664Z,4.09
2022-11-04T06:09:54.899Z,4.21
2022-11-04T06:12:21.828Z,4.12
2022-11-04T06:14:48.979Z,4.04
2022-11-04T06:17:16.938Z,4.21
2022-11-04T06:19:44.295Z,4.36
2022-11-04T06:22:12.138Z,4.53
2022-11-04T06:24:39.644Z,4.49
2022-11-04T06:27:06.747Z,4.51
2022-11-04T06:29:33.927Z,4.53
2022-11-04T06:32:00.776Z,4.56
2022-11-04T06:34:29.299Z,4.64
2022-11-04T06:36:56.163Z,4.66
2022-11-04T06:39:23.482Z,4.74
2022-11-04T06:41:51.754Z,4.82
2022-11-04T06:44:20.253Z,4.84
2022-11-04T06:46:47.186Z,4.72
2022-11-04T06:49:18.777Z,4.74
2022-11-04T06:51:46.176Z,4.74
2022-11-04T06:54:14.111Z,4.84
2022-11-04T06:56:41.312Z,4.68
2022-11-04T06:59:08.985Z,4.77
2022-11-04T07:01:36.956Z,4.80
2022-11-04T07:04:05.621Z,4.86
2022-11-04T07:06:32.446Z,4.72
2022-11-04T07:09:00.438Z,4.78
2022-11-04T07:11:29.570Z,4.84
2022-11-04T07:13:57.543Z,4.90
2022-11-04T07:16:24.412Z,4.87
2022-11-04T07:18:52.123Z,4.99
2022-11-04T07:21:18.980Z,5.09
2022-11-04T07:23:46.603Z,5.11
2022-11-04T07:26:13.737Z,5.00
2022-11-04T07:28:41.003Z,5.07
2022-11-04T07:31:08.466Z,5.13
2022-11-04T07:33:36.173Z,5.19
2022-11-04T07:36:07.188Z,5.23
2022-11-04T07:38:34.380Z,5.32
2022-11-04T07:41:02.676Z,5.36
2022-11-04T07:43:30.160Z,5.32
2022-11-04T07:46:04.148Z,5.32
2022-11-04T07:48:31.609Z,5.34
2022-11-04T07:50:59.905Z,5.41
2022-11-04T07:53:27.566Z,5.45
2022-11-04T07:55:54.584Z,5.47
2022-11-04T07:58:22.408Z,5.52
2022-11-04T08:00:50.068Z,5.60
2022-11-04T08:03:17.818Z,5.70
2022-11-04T08:05:44.688Z,5.73
2022-11-04T08:08:11.887Z,5.86
2022-11-04T08:10:38.851Z,5.92
2022-11-04T08:13:06.329Z,5.99
2022-11-04T08:15:35.914Z,6.00
2022-11-04T08:18:03.109Z,6.07
2022-11-04T08:20:30.224Z,6.13
2022-11-04T08:22:57.488Z,6.28
2022-11-04T08:25:24.387Z,6.27
2022-11-04T08:27:52.842Z,6.43
2022-11-04T08:30:22.466Z,6.67
2022-11-04T08:32:49.698Z,6.88
2022-11-04T08:35:16.636Z,7.12
2022-11-04T08:37:43.923Z,7.37
2022-11-04T08:40:10.896Z,7.51
2022-11-04T08:42:38.344Z,7.62
2022-11-04T08:45:05.535Z,7.67
2022-11-04T08:47:32.936Z,7.78
2022-11-04T08:49:59.806Z,7.85
2022-11-04T08:52:27.292Z,7.89
2022-11-04T08:54:57.428Z,7.98
2022-11-04T08:57:25.202Z,8.13
2022-11-04T08:59:52.227Z,8.33
2022-11-04T09:02:19.410Z,8.53
2022-11-04T09:04:46.243Z,8.68
2022-11-04T09:07:13.607Z,8.81
2022-11-04T09:09:41.072Z,8.87
2022-11-04T09:12:11.395Z,8.91
2022-11-04T09:14:38.385Z,8.87
2022-11-04T09:17:05.534Z,8.74
2022-11-04T09:19:32.760Z,8.59
2022-11-04T09:22:00.027Z,8.54
2022-11-04T09:24:26.952Z,8.54
2022-11-04T09:26:54.263Z,8.57
2022-11-04T09:29:21.155Z,8.60
2022-11-04T09:31:50.214Z,8.65
2022-11-04T09:34:20.591Z,8.70
2022-11-04T09:36:48.130Z,8.77
2022-11-04T09:39:15.095Z,8.80
2022-11-04T09:41:49.725Z,8.80
2022-11-04T09:44:25.841Z,8.79
2022-11-04T09:46:55.375Z,8.85
2022-11-04T09:49:23.112Z,8.91
2022-11-04T09:51:55.215Z,9.01
2022-11-04T09:54:24.910Z,9.22
2022-11-04T09:56:53.280Z,9.55
2022-11-04T09:59:21.499Z,9.87
2022-11-04T10:01:49.411Z,10.13
2022-11-04T10:04:34.469Z,10.27
2022-11-04T10:07:13.659Z,10.28
2022-11-04T10:10:01.511Z,10.26
2022-11-04T10:12:28.760Z,10.14
2022-11-04T10:15:19.012Z,10.15
2022-11-04T10:18:04.731Z,10.28
2022-11-04T10:20:37.358Z,10.33
2022-11-04T10:23:12.844Z,10.24
2022-11-04T10:25:59.915Z,10.09
2022-11-04T10:28:41.215Z,9.87
2022-11-04T10:31:11.123Z,9.68
2022-11-04T10:33:41.160Z,9.60
2022-11-04T10:36:09.853Z,9.09
2022-11-04T10:38:43.627Z,8.96
2022-11-04T10:41:34.029Z,9.09
2022-11-04T10:44:06.992Z,9.25
2022-11-04T10:46:39.955Z,9.29
2022-11-04T10:49:22.416Z,9.29
2022-11-04T10:51:49.269Z,9.33
2022-11-04T10:54:16.515Z,9.14
2022-11-04T10:56:53.989Z,9.11
2022-11-04T10:59:26.551Z,9.14
2022-11-04T11:01:57.691Z,9.14
2022-11-04T11:04:30.091Z,9.18
2022-11-04T11:06:58.570Z,9.20
2022-11-04T11:09:30.700Z,9.21
2022-11-04T11:12:00.988Z,9.23
2022-11-04T11:14:28.239Z,9.25
2022-11-04T11:17:17.511Z,9.24
2022-11-04T11:20:08.491Z,9.22
2022-11-04T11:22:35.387Z,9.20
2022-11-04T11:25:31.969Z,9.20
2022-11-04T11:28:03.236Z,9.22
2022-11-04T11:30:32.291Z,9.25
2022-11-04T11:33:01.081Z,9.27
2022-11-04T11:35:31.131Z,9.29
2022-11-04T11:37:59.350Z,9.30
2022-11-04T11:40:28.177Z,9.29
2022-11-04T11:42:55.907Z,9.26
2022-11-04T11:45:23.802Z,9.22
2022-11-04T11:47:55.096Z,9.17
2022-11-04T11:50:31.520Z,9.15
2022-11-04T11:53:29.640Z,9.13
2022-11-04T11:56:03.516Z,9.12
2022-11-04T12:01:33.193Z,9.17
2022-11-04T12:10:23.987Z,9.21
2022-11-04T12:13:28.029Z,9.16
2022-11-04T12:16:14.839Z,9.14
2022-11-04T12:18:54.150Z,9.12
2022-11-04T12:21:33.054Z,9.05
2022-11-04T12:24:20.694Z,9.04
2022-11-04T12:26:54.621Z,9.05
2022-11-04T12:29:34.143Z,9.06
2022-11-04T12:32:16.600Z,9.08
2022-11-04T12:35:10.305Z,9.08
2022-11-04T12:37:52.575Z,9.12
2022-11-04T12:40:19.987Z,9.12
2022-11-04T12:43:07.550Z,9.12
2022-11-04T12:45:59.147Z,9.08
2022-11-04T12:48:26.116Z,9.01
2022-11-04T12:51:28.907Z,8.97
2022-11-04T12:54:08.975Z,8.95
2022-11-04T12:56:38.249Z,8.93
2022-11-04T12:59:26.989Z,8.96
2022-11-04T13:01:54.362Z,8.97
2022-11-04T13:04:24.014Z,9.04
2022-11-04T13:07:04.183Z,9.10
2022-11-04T13:09:46.368Z,9.16
2022-11-04T13:12:16.541Z,9.23
2022-11-04T13:14:59.070Z,9.29
2022-11-04T13:17:39.231Z,9.38
2022-11-04T13:20:15.621Z,9.38
2022-11-04T13:22:44.696Z,9.38
2022-11-04T13:25:24.631Z,9.36
2022-11-04T13:27:51.610Z,9.38
2022-11-04T13:30:27.652Z,9.32
2022-11-04T13:32:58.803Z,9.31
2022-11-04T13:35:26.027Z,9.33
2022-11-04T13:37:58.328Z,9.34
2022-11-04T13:40:32.410Z,9.31
2022-11-04T13:43:36.377Z,9.31
2022-11-04T13:46:04.428Z,9.21
2022-11-04T13:48:33.774Z,9.19
2022-11-04T13:51:08.851Z,9.19
2022-11-04T13:53:41.781Z,9.18
2022-11-04T13:56:32.277Z,9.17
2022-11-04T13:59:00.177Z,9.15
2022-11-04T14:01:29.898Z,9.14
2022-11-04T14:04:19.111Z,9.08
2022-11-04T14:07:14.564Z,9.07
2022-11-04T14:09:44.496Z,9.07
2022-11-04T14:12:14.703Z,9.03
2022-11-04T14:14:42.932Z,9.00
2022-11-04T14:17:28.728Z,8.98
2022-11-04T14:19:58.004Z,8.93
2022-11-04T14:22:29.570Z,8.91
2022-11-04T14:24:58.474Z,8.91
2022-11-04T14:27:27.845Z,8.84
2022-11-04T14:29:55.527Z,8.82
2022-11-04T14:32:27.450Z,8.82
2022-11-04T14:34:59.211Z,8.80
2022-11-04T14:37:32.294Z,8.77
2022-11-04T14:40:00.957Z,8.77
2022-11-04T14:42:47.759Z,8.75
2022-11-04T14:45:25.800Z,8.75
2022-11-04T14:47:57.448Z,8.77
2022-11-04T14:50:26.681Z,8.79
2022-11-04T14:52:53.487Z,8.80
2022-11-04T14:55:22.695Z,8.81
2022-11-04T14:57:53.077Z,8.77
2022-11-04T15:00:32.127Z,8.73
2022-11-04T15:03:45.926Z,8.67
2022-11-04T15:06:06.084Z,8.63
2022-11-04T15:08:42.957Z,8.58
2022-11-04T15:11:17.661Z,8.64
2022-11-04T15:13:45.189Z,8.64
2022-11-04T15:16:18.216Z,8.67
2022-11-04T15:18:45.359Z,8.71
2022-11-04T15:21:13.284Z,8.75
2022-11-04T15:23:42.708Z,8.75
2022-11-04T15:26:30.563Z,8.72
2022-11-04T15:29:04.354Z,8.70
2022-11-04T15:31:32.893Z,8.72
2022-11-04T15:34:01.652Z,8.73
2022-11-04T15:36:32.523Z,8.67
2022-11-04T15:39:19.828Z,8.63
2022-11-04T15:42:05.939Z,8.65
2022-11-04T15:44:34.980Z,8.63
2022-11-04T15:47:03.420Z,8.59
2022-11-04T15:49:32.041Z,8.66
2022-11-04T15:52:20.017Z,8.69
2022-11-04T15:54:48.761Z,8.74
2022-11-04T15:57:21.457Z,8.72
2022-11-04T16:00:01.595Z,8.65
2022-11-04T16:02:30.941Z,8.60
2022-11-04T16:05:26.878Z,8.57
2022-11-04T16:07:54.659Z,8.46
2022-11-04T16:10:35.477Z,8.38
2022-11-04T16:13:14.618Z,8.29
2022-11-04T16:15:57.048Z,8.29
2022-11-04T16:18:23.883Z,8.30
2022-11-04T16:20:53.245Z,8.31
2022-11-04T16:23:25.089Z,8.28
2022-11-04T16:26:04.359Z,8.28
2022-11-04T16:28:40.923Z,8.28
2022-11-04T16:31:23.322Z,8.29
2022-11-04T16:33:50.725Z,8.29
2022-11-04T16:36:23.803Z,8.29
2022-11-04T16:39:03.867Z,8.26
2022-11-04T21:40:15.193Z,6.25
2022-11-04T21:42:42.592Z,6.41
2022-11-04T21:45:09.870Z,6.55
2022-11-04T21:47:37.122Z,6.72
2022-11-04T21:50:04.260Z,6.84
2022-11-04T21:52:31.875Z,6.93
2022-11-04T21:54:59.027Z,6.99
2022-11-04T21:57:26.428Z,7.12
2022-11-04T21:59:53.424Z,7.19
2022-11-04T22:02:20.877Z,7.23
2022-11-04T22:04:47.877Z,7.33
2022-11-04T22:07:15.222Z,7.41
2022-11-04T22:09:42.309Z,7.45
2022-11-04T22:12:09.599Z,7.47
2022-11-04T22:14:36.739Z,7.46
2022-11-04T22:17:04.045Z,7.42
2022-11-04T22:19:30.923Z,7.40
2022-11-04T22:21:58.321Z,7.37
2022-11-04T22:24:25.396Z,7.41
2022-11-04T22:26:52.851Z,7.29
2022-11-04T22:29:19.823Z,7.41
2022-11-04T22:31:47.115Z,7.43
2022-11-04T22:34:13.990Z,7.46
2022-11-04T22:36:41.236Z,7.44
2022-11-04T22:39:15.017Z,7.45
2022-11-04T22:41:44.039Z,7.37
2022-11-04T22:44:11.257Z,7.39
2022-11-04T22:46:38.822Z,7.43
2022-11-04T22:49:05.684Z,7.44
2022-11-04T22:51:32.901Z,7.43
2022-11-04T22:54:06.564Z,7.45
2022-11-04T22:56:35.833Z,7.47
2022-11-04T22:59:02.845Z,7.42
2022-11-04T23:01:31.786Z,7.38
2022-11-04T23:03:59.402Z,7.42
2022-11-04T23:06:26.853Z,7.41
2022-11-04T23:08:59.687Z,7.43
2022-11-04T23:11:47.035Z,7.48
2022-11-04T23:14:33.984Z,7.48
2022-11-04T23:17:20.286Z,7.45
2022-11-04T23:19:47.244Z,7.44
2022-11-04T23:22:33.135Z,7.41
2022-11-04T23:25:06.277Z,7.40
2022-11-04T23:27:52.503Z,7.43
2022-11-04T23:30:22.448Z,7.39
2022-11-04T23:32:52.875Z,7.40
2022-11-04T23:35:38.506Z,7.40
2022-11-04T23:38:06.230Z,7.36
2022-11-04T23:40:33.395Z,7.41
2022-11-04T23:43:00.987Z,7.34
2022-11-04T23:45:46.450Z,7.35
2022-11-04T23:48:32.464Z,7.38
2022-11-04T23:51:18.755Z,7.38
2022-11-04T23:54:04.979Z,7.34
2022-11-04T23:56:50.798Z,7.34
2022-11-04T23:59:37.331Z,7.36
